Time;durP1;ratioP1;P1;durP2;ratioP2;P2;SDS_P1;SDS_P2;PMS_P1;PMS_P2;Temp;Humidity;BMP_temperature;BMP_pressure;BME280_temperature;BME280_humidity;BME280_pressure;Samples;Min_cycle;Max_cycle;Signal;HPM_P1;HPM_P2
2022/06/24 00:06:11;;;;;;;9.57;5.15;;;22.60;99.90;;;;;;4878957;22;20057;-88
2022/06/24 00:08:47;;;;;;;10.00;5.28;;;22.60;99.90;;;;;;5138129;27;20019;-88
2022/06/24 00:11:13;;;;;;;7.25;5.05;;;22.60;99.90;;;;;;5138108;27;20121;-87
2022/06/24 00:13:39;;;;;;;5.45;4.88;;;22.60;99.90;;;;;;5117695;27;20062;-87
2022/06/24 00:16:05;;;;;;;9.35;5.35;;;22.60;99.90;;;;;;5109634;27;20022;-88
2022/06/24 00:18:30;;;;;;;8.95;5.20;;;22.60;99.90;;;;;;5121113;27;20034;-88
2022/06/24 00:20:56;;;;;;;8.15;5.88;;;22.60;99.90;;;;;;5103665;27;20114;-88
2022/06/24 00:23:40;;;;;;;7.63;5.30;;;22.60;99.90;;;;;;5120947;27;20054;-87
2022/06/24 00:26:06;;;;;;;7.80;5.25;;;22.50;99.90;;;;;;5138457;27;20019;-87
2022/06/24 00:28:32;;;;;;;10.38;5.72;;;22.60;99.90;;;;;;5100363;27;20024;-87
2022/06/24 00:30:58;;;;;;;8.23;5.60;;;22.60;99.90;;;;;;5095888;27;20019;-87
2022/06/24 00:33:26;;;;;;;10.98;5.65;;;22.50;99.90;;;;;;5103626;27;20029;-88
2022/06/24 00:35:56;;;;;;;10.77;5.70;;;22.50;99.90;;;;;;5119198;27;20110;-87
2022/06/24 00:38:24;;;;;;;8.95;5.75;;;22.50;99.90;;;;;;5133775;27;20019;-87
2022/06/24 00:41:05;;;;;;;8.95;6.30;;;22.50;99.90;;;;;;5138037;27;20023;-87
2022/06/24 00:43:32;;;;;;;;;;;22.50;99.90;;;;;;5138018;27;20025;-88
2022/06/24 00:46:10;;;;;;;8.85;5.70;;;22.50;99.90;;;;;;5137624;27;19903;-88
2022/06/24 00:48:40;;;;;;;8.68;5.85;;;22.50;99.90;;;;;;5131718;27;20019;-87
2022/06/24 00:51:07;;;;;;;10.57;6.53;;;22.40;99.90;;;;;;5096429;27;20018;-87
2022/06/24 00:53:53;;;;;;;10.10;6.35;;;22.40;99.90;;;;;;5136525;27;20333;-88
2022/06/24 00:56:21;;;;;;;10.73;6.55;;;22.40;99.90;;;;;;5103403;27;20026;-88
2022/06/24 00:58:55;;;;;;;9.93;6.78;;;22.40;99.90;;;;;;5118599;27;20068;-88
2022/06/24 01:01:39;;;;;;;14.48;8.70;;;22.30;99.90;;;;;;5120339;27;20069;-87
2022/06/24 01:04:10;;;;;;;12.88;8.80;;;22.10;99.90;;;;;;5116799;27;20026;-89
2022/06/24 01:06:37;;;;;;;13.32;11.38;;;21.90;99.90;;;;;;5130204;27;20074;-88
2022/06/24 01:09:03;;;;;;;17.17;11.77;;;21.70;99.90;;;;;;5116779;28;20027;-89
2022/06/24 01:11:30;;;;;;;17.38;12.88;;;21.60;99.90;;;;;;5119524;27;20026;-89
2022/06/24 01:13:56;;;;;;;13.65;11.85;;;21.40;99.90;;;;;;5144605;27;20021;-88
2022/06/24 01:16:23;;;;;;;15.20;10.88;;;21.40;99.90;;;;;;5117062;27;20026;-89
2022/06/24 01:18:59;;;;;;;16.33;10.20;;;21.40;99.90;;;;;;5120117;27;20019;-88
2022/06/24 01:21:40;;;;;;;13.48;10.55;;;21.30;99.90;;;;;;5137395;27;20034;-88
2022/06/24 01:24:07;;;;;;;;;;;21.30;99.90;;;;;;5126639;28;20102;-89
2022/06/24 01:26:37;;;;;;;11.73;10.07;;;21.30;99.90;;;;;;5133985;27;19907;-88
2022/06/24 01:29:03;;;;;;;13.80;10.73;;;21.30;99.90;;;;;;5155785;27;20019;-89
2022/06/24 01:31:29;;;;;;;13.95;10.43;;;21.30;99.90;;;;;;5122536;27;20050;-89
2022/06/24 01:33:56;;;;;;;16.20;11.70;;;21.30;99.90;;;;;;5129859;28;20071;-88
2022/06/24 01:36:22;;;;;;;14.35;10.70;;;21.30;99.90;;;;;;5116690;28;20023;-88
2022/06/24 01:38:48;;;;;;;14.65;10.68;;;21.30;99.90;;;;;;5099762;28;20031;-90
2022/06/24 01:41:14;;;;;;;16.30;11.20;;;21.30;99.90;;;;;;5128358;27;20026;-88
2022/06/24 01:43:43;;;;;;;12.27;9.60;;;21.30;99.90;;;;;;5137119;27;20011;-89
2022/06/24 01:46:09;;;;;;;12.95;9.93;;;21.40;99.90;;;;;;5137135;27;20018;-89
2022/06/24 01:48:35;;;;;;;14.35;9.38;;;21.40;99.90;;;;;;5111160;28;20036;-89
2022/06/24 01:51:01;;;;;;;11.18;8.27;;;21.40;99.90;;;;;;5115274;27;20022;-88
2022/06/24 01:53:29;;;;;;;10.18;7.03;;;21.40;99.90;;;;;;5120094;27;20062;-89
2022/06/24 01:56:02;;;;;;;11.23;7.40;;;21.40;99.90;;;;;;5120017;27;20475;-89
2022/06/24 01:58:27;;;;;;;11.18;7.20;;;21.40;99.90;;;;;;5136808;27;20033;-89
2022/06/24 02:00:53;;;;;;;11.50;7.85;;;21.50;99.90;;;;;;5119767;27;20115;-89
2022/06/24 02:03:19;;;;;;;11.90;8.27;;;21.40;99.90;;;;;;5102942;27;20027;-89
2022/06/24 02:05:46;;;;;;;11.90;8.88;;;21.40;99.90;;;;;;5112057;27;20044;-89
2022/06/24 02:08:12;;;;;;;13.23;10.10;;;21.40;99.90;;;;;;5101658;27;20062;-89
2022/06/24 02:13:44;;;;;;;13.85;9.73;;;21.30;99.90;;;;;;5031730;28;20521;-89
2022/06/24 02:16:10;;;;;;;12.13;8.50;;;21.30;99.90;;;;;;5022171;28;20044;-89
2022/06/24 02:18:36;;;;;;;9.18;5.43;;;21.30;99.90;;;;;;5054367;27;20035;-89
2022/06/24 02:21:02;;;;;;;5.65;3.38;;;21.30;99.90;;;;;;5128813;27;20035;-88
2022/06/24 02:23:30;;;;;;;5.18;3.45;;;21.20;99.90;;;;;;5114632;27;20023;-88
2022/06/24 02:25:56;;;;;;;18.90;6.07;;;21.20;99.90;;;;;;5112241;28;20027;-88
2022/06/24 02:28:22;;;;;;;7.38;3.80;;;21.10;99.90;;;;;;5131292;27;20019;-89
2022/06/24 02:30:51;;;;;;;6.30;3.40;;;21.10;99.90;;;;;;5085989;27;20028;-89
2022/06/24 02:33:16;;;;;;;5.53;4.00;;;21.00;99.90;;;;;;5103118;27;20038;-88
2022/06/24 02:35:42;;;;;;;5.18;3.50;;;21.00;99.90;;;;;;5119423;27;20268;-88
2022/06/24 02:38:08;;;;;;;7.28;3.67;;;21.00;99.90;;;;;;5093365;28;20027;-87
2022/06/24 02:40:47;;;;;;;7.03;3.22;;;20.90;99.90;;;;;;5082412;28;20035;-88
2022/06/24 02:43:16;;;;;;;6.18;3.10;;;20.90;99.90;;;;;;5099163;28;20143;-87
2022/06/24 02:45:46;;;;;;;5.80;2.83;;;20.80;99.90;;;;;;5118843;27;20019;-88
2022/06/24 02:48:13;;;;;;;4.53;2.90;;;20.80;99.90;;;;;;5119362;27;20055;-88
2022/06/24 02:50:44;;;;;;;4.40;2.88;;;20.70;99.90;;;;;;5102388;27;20031;-89
2022/06/24 02:53:11;;;;;;;5.90;2.92;;;20.70;99.90;;;;;;5102445;27;20016;-89
2022/06/24 02:55:37;;;;;;;6.50;2.78;;;20.70;99.90;;;;;;5105444;28;20023;-89
2022/06/24 02:58:04;;;;;;;3.92;2.40;;;20.70;99.90;;;;;;5101876;27;20030;-89
2022/06/24 03:00:30;;;;;;;4.90;2.78;;;20.70;99.90;;;;;;5119272;27;20042;-88
2022/06/24 03:02:56;;;;;;;6.97;3.15;;;20.70;99.90;;;;;;5081921;28;20469;-88
2022/06/24 03:05:22;;;;;;;8.25;3.25;;;20.70;99.90;;;;;;5091228;27;20370;-88
2022/06/24 03:07:48;;;;;;;6.53;3.40;;;20.80;99.90;;;;;;5118703;27;20042;-88
2022/06/24 03:10:15;;;;;;;5.43;3.03;;;20.80;99.90;;;;;;5115498;27;20380;-88
2022/06/24 03:12:42;;;;;;;4.15;2.50;;;20.80;99.90;;;;;;5113804;27;20019;-88
2022/06/24 03:15:08;;;;;;;8.60;2.88;;;20.70;99.90;;;;;;5121167;27;20054;-88
2022/06/24 03:17:34;;;;;;;6.25;2.75;;;20.70;99.90;;;;;;5157478;27;20019;-88
2022/06/24 03:20:00;;;;;;;5.65;2.65;;;20.60;99.90;;;;;;5135926;27;20023;-87
2022/06/24 03:22:26;;;;;;;5.95;2.60;;;20.50;99.90;;;;;;5101610;27;20111;-87
2022/06/24 03:24:52;;;;;;;4.80;2.40;;;20.50;99.90;;;;;;5100476;27;20106;-87
2022/06/24 03:27:20;;;;;;;4.20;2.15;;;20.50;99.90;;;;;;5139111;27;20050;-87
2022/06/24 03:29:47;;;;;;;5.75;2.10;;;20.50;99.90;;;;;;5122182;27;20026;-87
2022/06/24 03:32:13;;;;;;;7.65;2.00;;;20.50;99.90;;;;;;5104851;27;20050;-87
2022/06/24 03:34:39;;;;;;;2.88;2.20;;;20.50;99.90;;;;;;5121967;27;20523;-88
2022/06/24 03:37:05;;;;;;;4.18;2.00;;;20.50;99.90;;;;;;5122084;27;20495;-87
2022/06/24 03:39:31;;;;;;;3.65;1.92;;;20.50;99.90;;;;;;5118292;27;20031;-87
2022/06/24 03:41:57;;;;;;;6.53;2.10;;;20.50;99.90;;;;;;5101136;27;20374;-87
2022/06/24 03:44:23;;;;;;;7.03;2.38;;;20.50;99.90;;;;;;5113094;27;20379;-87
2022/06/24 03:46:48;;;;;;;4.40;2.30;;;20.50;99.90;;;;;;5117979;27;20472;-88
2022/06/24 03:49:15;;;;;;;3.83;2.13;;;20.50;99.90;;;;;;5118067;27;20029;-88
2022/06/24 03:51:41;;;;;;;4.15;2.50;;;20.50;99.90;;;;;;5121123;27;20022;-87
2022/06/24 03:54:07;;;;;;;5.10;2.60;;;20.50;99.90;;;;;;5117999;27;20024;-88
2022/06/24 03:56:37;;;;;;;4.25;2.60;;;20.50;99.90;;;;;;5135848;27;20029;-87
2022/06/24 04:03:03;;;;;;;5.90;3.00;;;20.40;99.90;;;;;;5146710;27;20054;-87
2022/06/24 04:12:27;;;;;;;5.90;2.72;;;20.40;99.90;;;;;;5136079;27;20083;-86
2022/06/24 04:15:14;;;;;;;11.40;3.60;;;20.40;99.90;;;;;;5117360;27;20031;-87
2022/06/24 04:17:41;;;;;;;8.45;3.05;;;20.40;99.90;;;;;;5085551;28;20072;-87
2022/06/24 04:20:08;;;;;;;7.25;3.00;;;20.40;99.90;;;;;;5111816;27;20426;-86
2022/06/24 04:23:01;;;;;;;5.28;2.60;;;20.40;99.90;;;;;;5116456;27;20031;-87
2022/06/24 04:25:27;;;;;;;6.68;3.15;;;20.40;99.90;;;;;;5096855;28;20023;-87
2022/06/24 04:28:15;;;;;;;6.65;3.25;;;20.40;99.90;;;;;;5097007;27;20029;-87
2022/06/24 04:30:41;;;;;;;8.02;3.40;;;20.30;99.90;;;;;;5107927;27;20023;-88
2022/06/24 04:33:07;;;;;;;7.45;3.28;;;20.30;99.90;;;;;;5100321;27;20224;-87
2022/06/24 04:35:33;;;;;;;7.22;3.65;;;20.30;99.90;;;;;;5135539;27;20102;-87
2022/06/24 04:38:02;;;;;;;5.78;3.17;;;20.30;99.90;;;;;;5136481;27;20034;-88
2022/06/24 04:40:28;;;;;;;6.15;2.90;;;20.30;99.90;;;;;;5100498;27;20048;-87
2022/06/24 04:43:09;;;;;;;6.82;2.95;;;20.30;99.90;;;;;;5079999;28;20070;-87
2022/06/24 04:45:36;;;;;;;8.07;3.10;;;20.30;99.90;;;;;;5096589;28;20023;-87
2022/06/24 04:48:02;;;;;;;4.57;2.80;;;20.30;99.90;;;;;;5069465;27;20030;-87
2022/06/24 04:50:28;;;;;;;4.60;3.10;;;20.30;99.90;;;;;;5116993;27;20019;-88
2022/06/24 04:52:54;;;;;;;7.20;3.17;;;20.20;99.90;;;;;;5099893;27;20023;-88
2022/06/24 04:55:20;;;;;;;7.72;2.83;;;20.30;99.90;;;;;;5116980;27;20106;-87
2022/06/24 04:57:47;;;;;;;6.30;2.70;;;20.20;99.90;;;;;;5116879;27;20103;-87
2022/06/24 05:00:13;;;;;;;5.35;3.20;;;20.20;99.90;;;;;;5096583;28;20033;-87
2022/06/24 05:02:41;;;;;;;5.60;2.80;;;20.20;99.90;;;;;;5107300;28;20107;-87
2022/06/24 05:05:11;;;;;;;6.65;2.80;;;20.20;99.90;;;;;;5102348;27;20054;-86
2022/06/24 05:07:38;;;;;;;4.28;2.83;;;20.20;99.90;;;;;;5145042;27;20502;-86
2022/06/24 05:10:06;;;;;;;6.20;2.80;;;20.20;99.90;;;;;;5111627;28;20026;-87
2022/06/24 05:12:31;;;;;;;6.70;3.00;;;20.20;99.90;;;;;;5089907;28;20055;-86
2022/06/24 05:14:57;;;;;;;7.05;3.42;;;20.20;99.90;;;;;;5099533;28;20031;-87
2022/06/24 05:17:24;;;;;;;8.02;3.08;;;20.20;99.90;;;;;;5119203;27;20047;-87
2022/06/24 05:19:51;;;;;;;7.43;3.08;;;20.20;99.90;;;;;;5121282;27;20030;-86
2022/06/24 05:22:16;;;;;;;4.95;3.03;;;20.20;99.90;;;;;;5099871;28;20416;-87
2022/06/24 05:24:42;;;;;;;5.30;2.80;;;20.10;99.90;;;;;;5116649;28;20054;-87
2022/06/24 05:27:08;;;;;;;5.53;2.90;;;20.10;99.90;;;;;;5122217;28;20472;-87
2022/06/24 05:30:02;;;;;;;5.18;2.72;;;20.20;99.90;;;;;;5097185;28;20027;-88
2022/06/24 05:32:28;;;;;;;5.00;2.78;;;20.10;99.90;;;;;;5113567;28;20034;-88
2022/06/24 05:34:56;;;;;;;5.70;3.28;;;20.10;99.90;;;;;;5096595;28;20040;-88
2022/06/24 05:37:22;;;;;;;6.78;3.33;;;20.10;99.90;;;;;;5097898;28;20024;-88
2022/06/24 05:39:48;;;;;;;6.80;3.42;;;20.10;99.90;;;;;;5065828;28;20035;-88
2022/06/24 05:42:14;;;;;;;7.95;3.40;;;20.10;99.90;;;;;;5083489;28;20481;-88
2022/06/24 05:44:39;;;;;;;7.22;3.88;;;20.00;99.90;;;;;;5083646;28;20023;-88
2022/06/24 05:47:05;;;;;;;5.85;3.47;;;20.00;99.90;;;;;;5096939;27;20098;-87
2022/06/24 05:49:31;;;;;;;6.70;3.58;;;20.00;99.90;;;;;;5103857;27;20161;-87
2022/06/24 05:51:58;;;;;;;7.18;3.55;;;19.90;99.90;;;;;;5083076;28;20023;-88
2022/06/24 05:57:08;;;;;;;5.85;3.53;;;19.90;99.90;;;;;;5123906;27;20039;-88
2022/06/24 05:59:37;;;;;;;6.35;3.38;;;19.90;99.90;;;;;;5086885;27;20035;-88
2022/06/24 06:02:05;;;;;;;5.32;3.40;;;19.80;99.90;;;;;;5100934;28;20032;-88
2022/06/24 06:04:34;;;;;;;6.95;3.65;;;19.80;99.90;;;;;;5086903;27;20027;-88
2022/06/24 06:07:00;;;;;;;8.35;4.07;;;19.80;99.90;;;;;;5103493;27;20043;-88
2022/06/24 06:09:25;;;;;;;9.50;3.95;;;19.70;99.90;;;;;;5103273;27;20110;-88
2022/06/24 06:11:51;;;;;;;7.20;4.55;;;19.80;99.90;;;;;;5117686;27;20015;-89
2022/06/24 06:14:17;;;;;;;5.45;3.80;;;19.70;99.90;;;;;;5104979;28;20024;-88
2022/06/24 06:16:43;;;;;;;8.25;5.25;;;19.70;99.90;;;;;;5102101;27;20123;-88
2022/06/24 06:19:08;;;;;;;8.85;4.47;;;19.70;99.90;;;;;;5102396;27;20507;-88
2022/06/24 06:21:35;;;;;;;5.68;3.88;;;19.70;99.90;;;;;;5113814;27;20499;-88
2022/06/24 06:24:01;;;;;;;6.65;4.65;;;19.70;99.90;;;;;;5117389;27;20115;-89
2022/06/24 06:26:29;;;;;;;7.88;4.93;;;19.70;99.90;;;;;;5102115;27;20055;-88
2022/06/24 06:29:14;;;;;;;6.25;4.50;;;19.60;99.90;;;;;;5111186;27;20034;-88
2022/06/24 06:31:40;;;;;;;6.82;4.28;;;19.60;99.90;;;;;;5096367;27;20022;-88
2022/06/24 06:34:06;;;;;;;6.30;4.45;;;19.60;99.90;;;;;;5103095;27;20381;-88
2022/06/24 06:36:31;;;;;;;7.05;4.60;;;19.60;99.90;;;;;;5103288;27;20121;-88
2022/06/24 06:38:57;;;;;;;8.75;4.93;;;19.50;99.90;;;;;;5100213;28;20053;-88
2022/06/24 06:41:23;;;;;;;10.25;5.28;;;19.60;99.90;;;;;;5067139;28;20512;-88
2022/06/24 06:44:10;;;;;;;6.13;4.40;;;19.50;99.90;;;;;;5097929;27;20028;-89
2022/06/24 06:46:37;;;;;;;9.68;5.10;;;19.60;99.90;;;;;;5102545;27;20484;-89
2022/06/24 06:49:02;;;;;;;27.80;5.38;;;19.60;99.90;;;;;;5100056;27;20015;-89
2022/06/24 06:51:28;;;;;;;8.20;5.03;;;19.50;99.90;;;;;;5098449;28;20035;-89
2022/06/24 06:53:54;;;;;;;6.93;4.20;;;19.60;99.90;;;;;;5113991;27;20034;-88
2022/06/24 06:56:19;;;;;;;7.65;4.60;;;19.60;99.90;;;;;;5102666;27;20088;-90
2022/06/24 06:58:46;;;;;;;6.50;5.22;;;19.60;99.90;;;;;;5081859;28;20024;-89
2022/06/24 07:01:11;;;;;;;7.05;4.72;;;19.60;99.90;;;;;;5081786;28;20048;-90
2022/06/24 07:03:37;;;;;;;8.70;5.10;;;19.60;99.90;;;;;;5102371;27;20027;-89
2022/06/24 07:06:24;;;;;;;9.73;5.05;;;19.60;99.90;;;;;;5088047;27;20037;-89
2022/06/24 07:08:51;;;;;;;12.32;5.22;;;19.60;99.90;;;;;;5090470;28;20396;-90
2022/06/24 07:11:17;;;;;;;9.63;4.75;;;19.60;99.90;;;;;;5082603;28;20030;-90
2022/06/24 07:13:43;;;;;;;7.63;4.97;;;19.60;99.90;;;;;;5091956;27;20027;-89
2022/06/24 07:16:11;;;;;;;9.85;4.68;;;19.60;99.90;;;;;;5098340;28;20056;-88
2022/06/24 07:18:37;;;;;;;8.95;4.70;;;19.50;99.90;;;;;;5098694;28;20063;-88
2022/06/24 07:21:03;;;;;;;9.55;5.15;;;19.50;99.90;;;;;;5075399;28;20070;-90
2022/06/24 07:23:29;;;;;;;7.97;5.60;;;19.60;99.90;;;;;;5097551;27;20456;-88
2022/06/24 07:26:32;;;;;;;6.97;5.13;;;19.50;99.90;;;;;;5108923;28;20035;-88
2022/06/24 07:28:57;;;;;;;7.97;5.55;;;19.60;99.90;;;;;;5032702;28;20463;-89
2022/06/24 07:31:23;;;;;;;7.53;5.03;;;19.50;99.90;;;;;;5081327;27;20031;-89
2022/06/24 07:33:49;;;;;;;7.13;5.78;;;19.60;99.90;;;;;;5101611;28;20104;-89
2022/06/24 07:36:14;;;;;;;10.48;6.13;;;19.50;99.90;;;;;;5101524;27;20063;-89
2022/06/24 07:38:40;;;;;;;9.32;6.05;;;19.50;99.90;;;;;;5101188;27;20388;-90
2022/06/24 07:41:08;;;;;;;8.32;6.47;;;19.50;99.90;;;;;;5118434;27;20032;-89
2022/06/24 07:43:36;;;;;;;8.38;6.63;;;19.50;99.90;;;;;;5100003;27;20020;-90
2022/06/24 07:46:02;;;;;;;9.65;7.50;;;19.50;99.90;;;;;;5101274;27;20019;-89
2022/06/24 07:48:27;;;;;;;9.32;7.28;;;19.60;99.90;;;;;;5099116;27;20023;-90
2022/06/24 07:50:53;;;;;;;11.18;6.88;;;19.60;99.90;;;;;;5118101;27;20031;-89
2022/06/24 07:53:19;;;;;;;8.20;6.85;;;19.50;99.90;;;;;;5117964;27;20031;-89
2022/06/24 07:58:28;;;;;;;8.80;7.78;;;19.60;99.90;;;;;;5095675;28;20059;-89
2022/06/24 08:00:54;;;;;;;10.65;8.20;;;19.60;99.90;;;;;;5088454;27;20467;-89
2022/06/24 08:03:20;;;;;;;10.43;8.52;;;19.60;99.90;;;;;;5086618;28;20018;-89
2022/06/24 08:05:45;;;;;;;10.13;9.10;;;19.60;99.90;;;;;;5097886;28;20483;-89
2022/06/24 08:09:09;;;;;;;12.38;9.98;;;19.60;99.90;;;;;;5080221;28;20454;-89
2022/06/24 08:11:36;;;;;;;11.35;9.93;;;19.60;99.90;;;;;;5116436;27;20027;-88
2022/06/24 08:14:02;;;;;;;11.50;9.55;;;19.60;99.90;;;;;;5097603;28;20026;-89
2022/06/24 08:16:28;;;;;;;11.73;10.40;;;19.60;99.90;;;;;;5097139;28;20031;-88
2022/06/24 08:18:54;;;;;;;12.35;10.70;;;19.60;99.90;;;;;;5070341;28;20387;-88
2022/06/24 08:21:20;;;;;;;11.48;10.27;;;19.60;99.90;;;;;;5096496;27;20038;-89
2022/06/24 08:23:46;;;;;;;13.73;11.75;;;19.60;99.90;;;;;;5100734;27;20051;-89
2022/06/24 08:26:12;;;;;;;14.48;11.30;;;19.60;99.90;;;;;;5100717;27;20024;-89
2022/06/24 08:28:38;;;;;;;12.10;10.38;;;19.70;99.90;;;;;;5100093;27;20031;-89
2022/06/24 08:31:03;;;;;;;11.73;10.23;;;19.70;99.90;;;;;;5100102;27;20031;-87
2022/06/24 08:33:29;;;;;;;13.32;10.75;;;19.70;99.90;;;;;;5097432;27;20024;-87
2022/06/24 08:35:58;;;;;;;11.85;10.15;;;19.70;99.90;;;;;;5080258;27;20388;-87
2022/06/24 08:38:23;;;;;;;12.02;10.73;;;19.70;99.90;;;;;;5114098;27;20031;-89
2022/06/24 08:40:52;;;;;;;15.30;12.00;;;19.70;99.90;;;;;;5094154;27;20030;-88
2022/06/24 08:43:23;;;;;;;14.25;11.65;;;19.80;99.90;;;;;;5116929;27;20483;-88
2022/06/24 08:45:49;;;;;;;14.55;11.15;;;19.80;99.90;;;;;;5117138;27;20019;-88
2022/06/24 08:48:16;;;;;;;13.20;11.77;;;19.80;99.90;;;;;;5100401;27;20020;-88
2022/06/24 08:54:04;;;;;;;13.25;11.77;;;19.80;99.90;;;;;;5135400;27;20540;-88
2022/06/24 08:56:30;;;;;;;13.77;12.00;;;19.90;99.90;;;;;;5135238;27;20524;-88
2022/06/24 08:58:57;;;;;;;12.82;11.52;;;19.90;99.90;;;;;;5100000;28;20384;-88
2022/06/24 09:01:23;;;;;;;17.20;12.63;;;19.90;99.90;;;;;;5099967;28;20019;-88
2022/06/24 09:03:49;;;;;;;14.18;11.68;;;20.00;99.90;;;;;;5100068;28;20027;-88
2022/06/24 09:06:16;;;;;;;13.70;12.30;;;19.90;99.90;;;;;;5099936;27;20035;-88
2022/06/24 09:08:50;;;;;;;12.60;11.23;;;19.90;99.90;;;;;;5136647;27;20045;-89
2022/06/24 09:11:16;;;;;;;13.88;11.52;;;19.90;99.90;;;;;;5138035;27;20034;-88
2022/06/24 09:13:49;;;;;;;12.13;10.82;;;20.00;99.90;;;;;;5120287;27;20536;-88
2022/06/24 09:16:17;;;;;;;12.50;10.70;;;20.00;99.90;;;;;;5138642;27;20037;-89
2022/06/24 09:18:54;;;;;;;16.08;12.70;;;20.00;99.90;;;;;;5137784;27;20467;-88
2022/06/24 09:21:41;;;;;;;12.55;11.25;;;20.00;99.90;;;;;;5137806;27;20027;-88
2022/06/24 09:24:08;;;;;;;15.45;11.98;;;20.00;99.90;;;;;;5139650;27;20023;-89
2022/06/24 09:26:37;;;;;;;13.05;11.68;;;20.00;99.90;;;;;;5140244;27;20019;-89
2022/06/24 09:29:04;;;;;;;15.65;12.77;;;20.10;99.90;;;;;;5139835;27;20011;-89
2022/06/24 09:31:31;;;;;;;14.02;11.82;;;20.00;99.90;;;;;;5141109;27;20121;-90
2022/06/24 09:34:16;;;;;;;13.30;11.90;;;20.00;99.90;;;;;;5140314;27;20019;-90
2022/06/24 09:36:43;;;;;;;14.15;11.98;;;20.10;99.90;;;;;;5137746;27;20063;-88
2022/06/24 09:39:11;;;;;;;16.27;14.20;;;20.10;99.90;;;;;;5120715;27;20031;-89
2022/06/24 09:41:53;;;;;;;15.95;13.85;;;20.10;99.90;;;;;;5120237;27;20087;-89
2022/06/24 09:44:19;;;;;;;16.05;13.60;;;20.10;99.90;;;;;;5105188;27;20218;-89
2022/06/24 09:46:45;;;;;;;17.60;15.80;;;20.20;99.90;;;;;;5121139;27;20059;-90
2022/06/24 09:49:17;;;;;;;17.40;15.60;;;20.20;99.90;;;;;;5121110;27;20027;-89
2022/06/24 09:51:46;;;;;;;16.02;14.45;;;20.20;99.90;;;;;;5137770;27;20023;-88
2022/06/24 09:54:14;;;;;;;17.05;15.45;;;20.20;99.90;;;;;;5121503;27;20106;-89
2022/06/24 09:56:40;;;;;;;17.83;16.02;;;20.20;99.90;;;;;;5120448;27;20105;-89
2022/06/24 10:01:53;;;;;;;17.95;16.05;;;20.20;99.90;;;;;;5140977;27;20054;-88
2022/06/24 10:04:20;;;;;;;18.15;16.42;;;20.20;99.90;;;;;;5120429;27;20015;-88
2022/06/24 10:06:48;;;;;;;19.15;16.30;;;20.20;99.90;;;;;;5137170;27;20117;-89
2022/06/24 10:09:14;;;;;;;21.33;18.67;;;20.30;99.90;;;;;;5103207;27;20037;-89
2022/06/24 10:11:44;;;;;;;20.75;18.80;;;20.30;99.90;;;;;;5119989;27;20019;-89
2022/06/24 10:18:26;;;;;;;22.08;19.95;;;20.30;99.90;;;;;;5155784;27;20026;-88
2022/06/24 10:20:58;;;;;;;20.40;18.23;;;20.30;99.90;;;;;;5136828;27;20030;-89
2022/06/24 10:26:47;;;;;;;20.92;18.83;;;20.40;99.90;;;;;;5158037;27;20033;-88
2022/06/24 10:29:18;;;;;;;20.65;17.98;;;20.40;99.90;;;;;;5140617;27;20014;-87
2022/06/24 10:38:38;;;;;;;21.63;19.35;;;20.50;99.90;;;;;;5158378;27;20018;-88
2022/06/24 10:41:05;;;;;;;23.30;20.67;;;20.50;99.90;;;;;;5139793;27;20186;-88
2022/06/24 10:43:41;;;;;;;22.85;20.55;;;20.60;99.90;;;;;;5124027;27;20368;-88
2022/06/24 10:46:13;;;;;;;23.20;20.73;;;20.60;99.90;;;;;;5122927;27;20019;-88
2022/06/24 10:48:45;;;;;;;21.60;19.40;;;20.60;99.90;;;;;;5139941;27;20019;-88
2022/06/24 10:51:14;;;;;;;20.85;18.75;;;20.60;99.90;;;;;;5139944;27;20030;-88
2022/06/24 10:54:01;;;;;;;20.27;18.17;;;20.70;99.90;;;;;;5122693;27;20524;-88
2022/06/24 10:56:41;;;;;;;21.00;18.95;;;20.70;99.90;;;;;;5139840;27;20022;-88
2022/06/24 10:59:07;;;;;;;20.20;18.15;;;20.80;99.90;;;;;;5139942;27;20022;-88
2022/06/24 11:01:33;;;;;;;19.70;17.23;;;20.70;99.90;;;;;;5105558;27;20023;-87
2022/06/24 11:04:04;;;;;;;19.15;17.27;;;20.80;99.90;;;;;;5139805;27;20023;-88
2022/06/24 11:10:31;;;;;;;21.33;19.10;;;20.80;99.90;;;;;;5145520;27;20096;-88
2022/06/24 11:12:58;;;;;;;21.08;18.90;;;20.90;99.90;;;;;;5101832;27;20035;-88
2022/06/24 11:15:46;;;;;;;18.98;17.13;;;20.90;99.90;;;;;;5118936;27;20042;-88
2022/06/24 11:18:21;;;;;;;20.33;18.00;;;21.00;99.90;;;;;;5118693;27;20030;-87
2022/06/24 11:20:49;;;;;;;16.98;15.27;;;21.00;99.90;;;;;;5102253;28;20369;-88
2022/06/24 11:23:17;;;;;;;15.70;14.20;;;21.10;99.90;;;;;;5098326;28;20098;-88
2022/06/24 11:25:49;;;;;;;15.90;14.30;;;21.10;99.90;;;;;;5082356;27;20028;-88
2022/06/24 11:28:20;;;;;;;17.50;15.57;;;21.20;99.90;;;;;;5118345;27;20015;-88
2022/06/24 11:30:46;;;;;;;13.05;11.68;;;21.30;99.90;;;;;;5118588;27;20376;-88
2022/06/24 11:33:12;;;;;;;12.20;10.90;;;21.40;99.90;;;;;;5101534;27;20023;-89
2022/06/24 11:35:38;;;;;;;10.63;9.52;;;21.50;99.90;;;;;;5121516;22;20048;-84
2022/06/24 11:38:09;;;;;;;9.70;8.65;;;21.40;99.90;;;;;;5138576;27;20025;-83
2022/06/24 11:40:35;;;;;;;12.48;8.20;;;21.50;99.90;;;;;;5033699;28;20040;-84
2022/06/24 11:43:11;;;;;;;8.57;7.68;;;21.50;99.90;;;;;;5119960;27;20369;-85
2022/06/24 11:45:48;;;;;;;9.57;8.65;;;21.50;99.90;;;;;;5023897;28;20017;-82
2022/06/24 11:48:22;;;;;;;11.57;8.85;;;21.60;99.90;;;;;;5030128;28;20476;-82
2022/06/24 11:50:48;;;;;;;10.00;8.13;;;21.60;99.90;;;;;;5106098;27;20035;-82
2022/06/24 11:53:14;;;;;;;10.88;8.50;;;21.60;99.90;;;;;;5052949;27;20048;-83
2022/06/24 12:17:02;;;;;;;16.73;15.20;;;21.30;99.90;;;;;;4916657;29;20084;-90
2022/06/24 12:20:04;;;;;;;15.63;14.20;;;21.30;99.90;;;;;;4908716;28;20024;-89
2022/06/24 12:30:10;;;;;;;;;;;;;;;;;;;;;
2022/06/24 12:44:33;;;;;;;;;;;;;;;;;;;;;
2022/06/24 12:54:00;;;;;;;;;;;;;;;;;;;;;
2022/06/24 12:59:53;;;;;;;8.25;7.45;;;21.70;99.90;;;;;;5003524;28;20060;-89
2022/06/24 13:03:41;;;;;;;;;;;;;;;;;;;;;
2022/06/24 13:06:59;;;;;;;;;;;;;;;;;;;;;
2022/06/24 13:13:07;;;;;;;;;;;;;;;;;;;;;
2022/06/24 13:23:04;;;;;;;;;;;;;;;;;;;;;
2022/06/24 13:26:21;;;;;;;3.85;3.00;;;22.00;99.90;;;;;;4954651;28;20439;-91
2022/06/24 13:29:52;;;;;;;;;;;;;;;;;;;;;
2022/06/24 13:33:06;;;;;;;;;;;;;;;;;;;;;
2022/06/24 13:40:23;;;;;;;;;;;;;;;;;;;;;
2022/06/24 13:43:20;;;;;;;;;;;;;;;;;;;;;
2022/06/24 13:46:52;;;;;;;2.85;2.55;;;22.10;99.90;;;;;;4895106;28;20028;-92
2022/06/24 13:53:12;;;;;;;;;;;;;;;;;;;;;
2022/06/24 14:02:54;;;;;;;2.92;2.38;;;22.50;99.90;;;;;;4969297;28;20039;-92
2022/06/24 14:06:34;;;;;;;;;;;;;;;;;;;;;
2022/06/24 14:08:54;;;;;;;2.45;1.83;;;22.70;99.90;;;;;;4975222;28;20482;-93
2022/06/24 14:11:25;;;;;;;1.95;1.70;;;22.70;99.90;;;;;;4993119;28;20081;-87
2022/06/24 14:13:58;;;;;;;1.88;1.52;;;22.80;99.90;;;;;;5106859;27;20027;-91
2022/06/24 14:17:00;;;;;;;3.95;1.80;;;22.80;99.90;;;;;;5108704;27;20046;-92
2022/06/24 14:19:42;;;;;;;2.88;1.50;;;22.90;99.90;;;;;;5123931;27;20038;-91
2022/06/24 14:22:16;;;;;;;1.65;1.52;;;22.90;99.90;;;;;;5118964;27;20023;-92
2022/06/24 14:24:45;;;;;;;2.67;1.48;;;22.90;99.90;;;;;;5084453;28;20041;-91
2022/06/24 14:27:34;;;;;;;2.63;1.58;;;23.00;99.90;;;;;;5097888;27;20030;-91
2022/06/24 14:30:04;;;;;;;4.38;2.40;;;23.00;99.90;;;;;;5108532;27;20489;-92
2022/06/24 14:32:40;;;;;;;2.53;1.40;;;23.10;99.90;;;;;;5102795;28;20040;-94
2022/06/24 14:35:06;;;;;;;1.85;1.40;;;23.10;99.90;;;;;;5086806;28;20128;-91
2022/06/24 14:40:25;;;;;;;1.15;0.95;;;23.20;99.90;;;;;;5122691;27;20170;-92
2022/06/24 14:43:00;;;;;;;1.23;1.10;;;23.20;99.90;;;;;;5138146;27;20031;-91
2022/06/24 14:45:34;;;;;;;2.88;1.05;;;23.20;99.90;;;;;;5120041;27;20047;-92
2022/06/24 14:48:10;;;;;;;;;;;;;;;;;;;;;
2022/06/24 14:50:54;;;;;;;2.35;1.00;;;23.30;99.90;;;;;;5136057;27;20023;-91
2022/06/24 14:53:32;;;;;;;;;;;;;;;;;;;;;
2022/06/24 14:56:13;;;;;;;;;;;;;;;;;;;;;
2022/06/24 14:58:59;;;;;;;3.30;1.50;;;23.40;99.90;;;;;;5137489;27;20453;-92
2022/06/24 15:01:40;;;;;;;1.67;1.40;;;23.50;99.90;;;;;;5138208;27;20079;-93
2022/06/24 15:04:21;;;;;;;;;;;;;;;;;;;;;
2022/06/24 15:06:56;;;;;;;2.35;1.20;;;23.60;99.90;;;;;;5142185;27;20046;-91
2022/06/24 15:09:22;;;;;;;4.03;1.27;;;23.70;99.90;;;;;;5136477;28;20201;-89
2022/06/24 15:11:48;;;;;;;1.63;1.35;;;23.80;99.90;;;;;;5124474;28;20069;-94
2022/06/24 15:14:13;;;;;;;2.40;1.65;;;23.80;99.90;;;;;;5138536;27;20012;-90
2022/06/24 15:16:39;;;;;;;1.60;1.50;;;23.80;99.90;;;;;;5123488;28;20015;-90
2022/06/24 15:19:05;;;;;;;2.10;1.35;;;23.80;99.90;;;;;;5142164;27;20025;-91
2022/06/24 15:21:31;;;;;;;1.60;1.45;;;23.80;99.90;;;;;;5109777;27;20421;-90
2022/06/24 15:23:57;;;;;;;2.97;1.90;;;23.80;99.90;;;;;;5120684;27;20027;-89
2022/06/24 15:26:23;;;;;;;3.20;1.58;;;23.70;99.90;;;;;;5129322;27;20028;-91
2022/06/24 15:28:50;;;;;;;3.33;1.77;;;23.70;99.90;;;;;;5113469;27;20031;-91